createdAt,value
2022-12-17T00:01:45.319Z,37.53
2022-12-17T00:05:33.343Z,38.57
2022-12-17T00:08:18.546Z,38.73
2022-12-17T00:11:03.369Z,36.50
2022-12-17T00:13:48.439Z,38.27
2022-12-17T00:16:34.344Z,36.33
2022-12-17T00:19:19.353Z,34.33
2022-12-17T00:22:04.166Z,33.63
2022-12-17T00:24:49.042Z,33.60
2022-12-17T00:27:33.884Z,34.57
2022-12-17T00:30:18.709Z,34.90
2022-12-17T00:33:03.188Z,35.90
2022-12-17T00:35:47.756Z,36.03
2022-12-17T00:38:36.742Z,36.53
2022-12-17T00:41:22.048Z,36.60
2022-12-17T00:44:06.906Z,36.17
2022-12-17T00:46:51.776Z,36.20
2022-12-17T00:49:36.600Z,35.43
2022-12-17T00:52:22.624Z,36.33
2022-12-17T00:55:07.440Z,33.97
2022-12-17T00:57:52.359Z,34.23
2022-12-17T01:00:37.263Z,34.63
2022-12-17T01:03:29.607Z,32.53
2022-12-17T01:08:33.233Z,37.30
2022-12-17T01:11:20.272Z,33.60
2022-12-17T01:14:05.632Z,32.93
2022-12-17T01:16:51.060Z,33.97
2022-12-17T01:19:36.475Z,35.33
2022-12-17T01:22:21.382Z,35.73
2022-12-17T01:25:05.903Z,38.03
2022-12-17T01:27:50.797Z,36.73
2022-12-17T01:30:35.534Z,36.73
2022-12-17T01:33:25.961Z,39.30
2022-12-17T01:36:15.264Z,38.13
2022-12-17T01:39:00.391Z,37.40
2022-12-17T01:41:45.649Z,36.27
2022-12-17T01:46:03.145Z,38.67
2022-12-17T01:48:59.547Z,35.60
2022-12-17T01:51:45.494Z,37.40
2022-12-17T01:54:32.002Z,36.60
2022-12-17T01:57:18.355Z,36.67
2022-12-17T02:00:19.507Z,37.63
2022-12-17T02:03:04.562Z,35.97
2022-12-17T02:08:13.139Z,35.80
2022-12-17T02:11:21.016Z,33.67
2022-12-17T02:14:41.922Z,34.27
2022-12-17T02:17:35.359Z,33.67
2022-12-17T02:20:52.070Z,35.37
2022-12-17T02:24:15.050Z,32.87
2022-12-17T02:27:11.575Z,33.00
2022-12-17T02:30:09.037Z,32.43
2022-12-17T02:32:58.973Z,34.97
2022-12-17T02:35:52.406Z,32.37
2022-12-17T02:38:44.533Z,33.70
2022-12-17T02:42:01.306Z,32.53
2022-12-17T02:44:47.515Z,32.67
2022-12-17T02:47:33.323Z,33.83
2022-12-17T02:50:18.166Z,34.33
2022-12-17T02:53:06.049Z,33.77
2022-12-17T02:55:53.074Z,34.87
2022-12-17T02:58:38.060Z,34.70
2022-12-17T03:01:23.148Z,33.27
2022-12-17T03:04:07.923Z,35.00
2022-12-17T03:06:52.766Z,32.50
2022-12-17T03:09:37.348Z,34.10
2022-12-17T03:12:22.274Z,35.47
2022-12-17T03:15:07.226Z,33.33
2022-12-17T03:17:51.758Z,33.23
2022-12-17T03:20:36.640Z,35.43
2022-12-17T03:23:25.099Z,36.03
2022-12-17T03:26:10.455Z,33.63
2022-12-17T03:28:55.742Z,32.83
2022-12-17T03:31:40.681Z,32.27
2022-12-17T03:34:25.737Z,33.77
2022-12-17T03:37:10.613Z,33.10
2022-12-17T03:39:55.366Z,33.10
2022-12-17T03:42:40.391Z,31.30
2022-12-17T03:45:25.752Z,31.07
2022-12-17T03:48:20.601Z,32.20
2022-12-17T03:51:05.467Z,32.50
2022-12-17T03:53:50.301Z,31.77
2022-12-17T03:56:35.114Z,31.50
2022-12-17T03:59:20.054Z,30.50
2022-12-17T04:02:04.951Z,31.43
2022-12-17T04:04:49.737Z,30.93
2022-12-17T04:07:34.555Z,30.13
2022-12-17T04:10:19.441Z,30.80
2022-12-17T04:13:04.695Z,27.93
2022-12-17T04:15:49.656Z,20.77
2022-12-17T04:19:37.634Z,19.97
2022-12-17T04:22:22.541Z,22.53
2022-12-17T04:25:07.301Z,22.70
2022-12-17T04:27:52.195Z,25.07
2022-12-17T04:30:36.933Z,26.30
2022-12-17T04:33:21.569Z,24.20
2022-12-17T04:36:06.490Z,26.47
2022-12-17T04:38:51.322Z,26.70
2022-12-17T04:41:36.321Z,26.73
2022-12-17T04:44:21.053Z,24.80
2022-12-17T04:47:06.054Z,27.77
2022-12-17T04:49:50.966Z,26.57
2022-12-17T04:52:35.754Z,26.47
2022-12-17T04:55:20.768Z,27.33
2022-12-17T04:58:05.636Z,25.23
2022-12-17T05:00:50.497Z,27.53
2022-12-17T05:03:36.040Z,25.37
2022-12-17T05:06:21.249Z,26.40
2022-12-17T05:09:06.117Z,25.33
2022-12-17T05:11:50.930Z,24.87
2022-12-17T05:14:36.378Z,25.03
2022-12-17T05:17:21.273Z,24.60
2022-12-17T05:20:06.162Z,27.17
2022-12-17T05:22:53.534Z,24.97
2022-12-17T05:25:38.388Z,25.90
2022-12-17T05:28:23.375Z,26.00
2022-12-17T05:31:13.151Z,28.80
2022-12-17T05:33:58.287Z,26.97
2022-12-17T05:36:43.774Z,24.57
2022-12-17T05:39:28.641Z,25.53
2022-12-17T05:42:13.526Z,26.80
2022-12-17T05:44:58.427Z,28.93
2022-12-17T05:47:43.260Z,26.93
2022-12-17T05:50:28.031Z,27.40
2022-12-17T05:53:19.409Z,27.50
2022-12-17T05:56:10.880Z,25.80
2022-12-17T05:58:56.683Z,27.43
2022-12-17T06:01:42.836Z,25.83
2022-12-17T06:04:28.522Z,26.90
2022-12-17T06:07:13.441Z,25.90
2022-12-17T06:09:58.316Z,24.97
2022-12-17T06:12:43.236Z,25.40
2022-12-17T06:15:28.079Z,24.33
2022-12-17T06:18:16.969Z,25.13
2022-12-17T06:21:02.739Z,23.93
2022-12-17T06:23:47.546Z,25.23
2022-12-17T06:26:32.337Z,24.87
2022-12-17T06:29:17.077Z,26.00
2022-12-17T06:32:01.995Z,25.07
2022-12-17T06:34:46.946Z,24.90
2022-12-17T06:37:31.800Z,26.93
2022-12-17T06:40:16.785Z,27.00
2022-12-17T06:43:14.294Z,27.87
2022-12-17T06:45:59.266Z,27.13
2022-12-17T06:48:44.037Z,26.00
2022-12-17T06:51:28.978Z,25.83
2022-12-17T06:54:13.753Z,25.07
2022-12-17T06:56:58.627Z,24.73
2022-12-17T06:59:43.616Z,25.03
2022-12-17T07:02:31.606Z,24.80
2022-12-17T07:05:16.489Z,24.93
2022-12-17T07:08:01.352Z,23.97
2022-12-17T07:10:46.331Z,24.70
2022-12-17T07:13:31.045Z,26.13
2022-12-17T07:16:16.032Z,24.50
2022-12-17T07:19:00.935Z,26.00
2022-12-17T07:24:20.058Z,25.23
2022-12-17T07:27:04.970Z,23.70
2022-12-17T07:29:49.827Z,26.47
2022-12-17T07:32:34.690Z,24.97
2022-12-17T07:35:19.626Z,26.10
2022-12-17T07:38:04.559Z,28.83
2022-12-17T07:40:49.403Z,29.23
2022-12-17T07:43:34.701Z,27.57
2022-12-17T07:46:20.230Z,26.47
2022-12-17T07:49:05.077Z,25.90
2022-12-17T07:51:49.936Z,25.83
2022-12-17T07:54:34.888Z,25.00
2022-12-17T07:57:19.856Z,24.07
2022-12-17T08:00:04.632Z,23.23
2022-12-17T08:02:49.707Z,24.00
2022-12-17T08:05:34.425Z,23.47
2022-12-17T08:08:30.789Z,23.93
2022-12-17T08:11:15.689Z,23.10
2022-12-17T08:14:00.692Z,22.77
2022-12-17T08:16:45.282Z,21.40
2022-12-17T08:19:30.870Z,21.37
2022-12-17T08:22:15.684Z,22.13
2022-12-17T08:26:15.741Z,22.07
2022-12-17T08:29:00.650Z,22.53
2022-12-17T08:31:45.505Z,21.60
2022-12-17T08:34:33.334Z,22.40
2022-12-17T08:37:18.136Z,20.53
2022-12-17T08:40:03.086Z,20.13
2022-12-17T08:42:47.916Z,20.93
2022-12-17T08:45:33.028Z,20.37
2022-12-17T08:48:24.484Z,19.03
2022-12-17T08:51:09.344Z,21.13
2022-12-17T08:53:54.357Z,19.90
2022-12-17T08:56:39.302Z,19.13
2022-12-17T08:59:24.083Z,18.07
2022-12-17T09:02:09.214Z,19.57
2022-12-17T09:04:53.937Z,21.40
2022-12-17T09:07:38.844Z,19.43
2022-12-17T09:10:24.196Z,18.70
2022-12-17T09:15:43.768Z,19.07
2022-12-17T09:18:28.435Z,19.23
2022-12-17T09:21:14.356Z,20.00
2022-12-17T09:23:59.360Z,21.27
2022-12-17T09:26:44.276Z,19.90
2022-12-17T09:29:29.207Z,19.50
2022-12-17T09:32:13.989Z,19.63
2022-12-17T09:34:58.874Z,19.90
2022-12-17T09:37:43.691Z,20.47
2022-12-17T09:40:39.103Z,22.50
2022-12-17T09:43:50.083Z,19.20
2022-12-17T09:46:53.991Z,18.67
2022-12-17T09:49:44.004Z,18.93
2022-12-17T09:53:02.304Z,20.23
2022-12-17T09:56:03.702Z,21.17
2022-12-17T09:58:49.120Z,21.83
2022-12-17T10:01:42.118Z,19.83
2022-12-17T10:04:52.531Z,25.33
2022-12-17T10:07:42.468Z,27.10
2022-12-17T10:13:03.711Z,23.87
2022-12-17T10:15:48.542Z,22.90
2022-12-17T10:18:37.547Z,24.47
2022-12-17T10:21:29.033Z,23.57
2022-12-17T10:24:28.755Z,25.40
2022-12-17T10:27:14.013Z,24.37
2022-12-17T10:30:00.981Z,21.10
2022-12-17T10:32:46.818Z,18.77
2022-12-17T10:35:55.442Z,18.00
2022-12-17T10:38:49.310Z,19.60
2022-12-17T10:41:48.308Z,18.30
2022-12-17T10:44:55.516Z,17.50
2022-12-17T10:47:44.097Z,17.17
2022-12-17T10:50:39.688Z,15.90
2022-12-17T10:53:40.417Z,14.83
2022-12-17T10:56:37.190Z,14.77
2022-12-17T10:59:31.105Z,15.43
2022-12-17T11:02:17.158Z,14.50
2022-12-17T11:05:10.859Z,13.80
2022-12-17T11:08:01.306Z,13.80
2022-12-17T11:10:51.469Z,12.33
2022-12-17T11:14:23.189Z,12.77
2022-12-17T11:17:16.075Z,12.87
2022-12-17T11:20:20.436Z,12.83
2022-12-17T11:23:17.935Z,14.63
2022-12-17T11:26:30.098Z,18.50
2022-12-17T11:29:17.312Z,20.83
2022-12-17T11:34:07.420Z,21.47
2022-12-17T11:37:20.006Z,21.53
2022-12-17T11:43:24.761Z,22.80
2022-12-17T11:46:41.573Z,19.50
2022-12-17T11:53:03.754Z,19.23
2022-12-17T11:58:36.210Z,19.00
2022-12-17T12:02:04.460Z,21.07
2022-12-17T12:06:40.626Z,19.07
2022-12-17T12:09:50.330Z,18.00
2022-12-17T12:18:58.564Z,18.37
2022-12-17T12:22:01.486Z,19.77
2022-12-17T12:28:09.795Z,18.93
2022-12-17T12:31:27.473Z,18.70
2022-12-17T12:34:18.994Z,17.20
2022-12-17T12:37:05.933Z,19.23
2022-12-17T12:41:44.517Z,21.23
2022-12-17T12:46:15.812Z,19.80
2022-12-17T12:49:15.548Z,19.37
2022-12-17T12:52:00.951Z,18.27
2022-12-17T12:55:09.675Z,19.80
2022-12-17T12:58:48.646Z,23.23
2022-12-17T13:01:34.221Z,23.07
2022-12-17T13:05:00.259Z,24.47
2022-12-17T13:07:29.852Z,23.47
2022-12-17T13:09:58.352Z,22.77
2022-12-17T13:12:39.597Z,22.83
2022-12-17T13:15:27.770Z,23.93
2022-12-17T13:18:32.369Z,24.50
2022-12-17T13:21:22.861Z,22.33
2022-12-17T13:23:49.387Z,22.80
2022-12-17T13:26:43.280Z,23.17
2022-12-17T13:29:35.285Z,22.73
2022-12-17T13:32:32.986Z,23.40
2022-12-17T13:35:41.090Z,22.77
2022-12-17T13:39:07.796Z,23.27
2022-12-17T13:41:37.817Z,21.83
2022-12-17T13:44:37.930Z,21.77
2022-12-17T13:47:04.624Z,19.77
2022-12-17T13:49:32.111Z,21.13
2022-12-17T13:52:16.970Z,19.77
2022-12-17T13:54:43.837Z,16.00
2022-12-17T13:57:31.539Z,14.60
2022-12-17T14:00:01.690Z,15.03
2022-12-17T14:02:35.700Z,14.87
2022-12-17T14:05:17.773Z,14.30
2022-12-17T14:07:44.270Z,15.03
2022-12-17T14:10:18.572Z,14.23
2022-12-17T14:12:46.314Z,14.20
2022-12-17T14:15:27.462Z,14.27
2022-12-17T14:17:56.085Z,14.83
2022-12-17T14:20:28.145Z,14.13
2022-12-17T14:23:28.099Z,14.40
2022-12-17T14:25:55.781Z,14.20
2022-12-17T14:28:30.647Z,15.17
2022-12-17T14:31:28.064Z,16.17
2022-12-17T14:34:12.572Z,16.93
2022-12-17T14:36:42.498Z,15.00
2022-12-17T14:39:30.613Z,14.27
2022-12-17T14:42:31.607Z,14.77
2022-12-17T14:45:21.528Z,14.30
2022-12-17T14:48:15.382Z,16.77
2022-12-17T14:50:41.824Z,15.80
2022-12-17T14:53:26.989Z,16.60
2022-12-17T14:55:58.377Z,14.90
2022-12-17T14:58:26.914Z,13.67
2022-12-17T15:01:11.356Z,10.27
2022-12-17T15:03:42.574Z,11.03
2022-12-17T15:06:17.624Z,13.87
2022-12-17T15:08:48.148Z,15.90
2022-12-17T15:11:21.239Z,15.87
2022-12-17T15:13:51.576Z,14.43
2022-12-17T15:16:22.637Z,12.63
2022-12-17T15:18:49.142Z,13.77
2022-12-17T15:21:17.835Z,14.17
2022-12-17T15:23:46.732Z,14.83
2022-12-17T15:26:14.471Z,16.13
2022-12-17T15:28:45.228Z,15.47
2022-12-17T15:31:14.178Z,16.30
2022-12-17T15:33:42.063Z,15.83
2022-12-17T15:36:11.383Z,16.13
2022-12-17T15:38:38.639Z,15.03
2022-12-17T15:41:24.465Z,13.77
2022-12-17T15:43:51.483Z,13.93
2022-12-17T15:46:18.091Z,14.53
2022-12-17T15:48:49.817Z,16.23
2022-12-17T15:51:19.750Z,15.50
2022-12-17T15:53:47.521Z,14.73
2022-12-17T15:56:26.302Z,14.90
2022-12-17T15:58:55.780Z,15.37
2022-12-17T16:01:22.541Z,15.57
2022-12-17T16:03:49.163Z,15.60
2022-12-17T16:06:16.272Z,14.77
2022-12-17T16:08:42.862Z,16.30
2022-12-17T16:11:12.901Z,15.73
2022-12-17T16:13:39.965Z,15.33
2022-12-17T16:16:07.921Z,15.33
2022-12-17T16:18:37.873Z,13.27
2022-12-17T16:21:07.640Z,13.63
2022-12-17T16:23:34.717Z,15.37
2022-12-17T16:26:04.598Z,15.90
2022-12-17T16:28:31.307Z,14.13
2022-12-17T16:31:12.137Z,14.97
2022-12-17T16:33:41.228Z,15.47
2022-12-17T16:36:11.610Z,14.80
2022-12-17T16:38:45.416Z,15.63
2022-12-17T16:41:13.505Z,15.73
2022-12-17T16:43:40.387Z,12.67
2022-12-17T16:46:28.744Z,14.07
2022-12-17T16:48:58.425Z,13.70
2022-12-17T16:51:29.240Z,12.43
2022-12-17T16:53:58.038Z,13.27
2022-12-17T16:56:28.227Z,12.60
2022-12-17T16:58:56.143Z,12.23
2022-12-17T17:01:28.528Z,12.40
2022-12-17T17:03:56.325Z,11.57
2022-12-17T17:06:26.779Z,11.17
2022-12-17T17:08:56.658Z,10.23
2022-12-17T17:11:25.016Z,8.40
2022-12-17T17:13:53.758Z,7.90
2022-12-17T17:16:23.575Z,8.03
2022-12-17T17:18:51.979Z,9.63
2022-12-17T17:21:40.214Z,9.70
2022-12-17T17:24:16.795Z,10.77
2022-12-17T17:26:47.902Z,11.20
2022-12-17T17:29:14.562Z,12.03
2022-12-17T17:34:39.319Z,11.80
2022-12-17T17:37:06.051Z,13.53
2022-12-17T17:39:33.429Z,13.90
2022-12-17T17:42:00.428Z,16.33
2022-12-17T17:44:26.916Z,15.07
2022-12-17T17:46:53.440Z,15.67
2022-12-17T17:49:19.926Z,13.70
2022-12-17T17:54:42.862Z,13.50
2022-12-17T17:57:10.953Z,12.40
2022-12-17T17:59:38.665Z,13.47
2022-12-17T18:02:05.308Z,13.20
2022-12-17T18:04:32.154Z,13.33
2022-12-17T18:09:55.622Z,13.27
2022-12-17T18:12:40.996Z,12.37
2022-12-17T18:15:17.337Z,11.00
2022-12-17T18:17:49.183Z,10.67
2022-12-17T18:20:16.503Z,10.90
2022-12-17T18:22:45.065Z,9.93
2022-12-17T18:25:11.562Z,10.20
2022-12-17T18:27:38.394Z,10.77
2022-12-17T18:30:05.795Z,10.87
2022-12-17T18:32:32.300Z,11.00
2022-12-17T18:34:59.008Z,10.50
2022-12-17T18:37:25.530Z,10.60
2022-12-17T18:39:52.000Z,10.90
2022-12-17T18:42:36.698Z,9.00
2022-12-17T18:45:03.731Z,9.70
2022-12-17T18:47:30.465Z,8.67
2022-12-17T18:49:57.325Z,9.50
2022-12-17T18:52:24.316Z,10.53
2022-12-17T18:54:50.778Z,10.57
2022-12-17T18:57:17.253Z,9.77
2022-12-17T18:59:43.715Z,9.80
2022-12-17T19:02:12.290Z,9.57
2022-12-17T19:04:39.403Z,11.93
2022-12-17T19:07:06.045Z,10.70
2022-12-17T19:09:34.787Z,11.03
2022-12-17T19:12:06.623Z,10.87
2022-12-17T19:14:33.508Z,11.83
2022-12-17T19:17:00.749Z,11.47
2022-12-17T19:19:27.906Z,11.97
2022-12-17T19:21:55.428Z,10.77
2022-12-17T19:24:22.747Z,11.50
2022-12-17T19:26:50.111Z,11.83
2022-12-17T19:29:18.769Z,12.07
2022-12-17T19:31:45.346Z,11.80
2022-12-17T19:34:16.862Z,11.47
2022-12-17T19:36:44.382Z,11.40
2022-12-17T19:39:17.545Z,12.50
2022-12-17T19:41:44.329Z,13.13
2022-12-17T19:44:14.164Z,10.60
2022-12-17T19:46:42.029Z,10.43
2022-12-17T19:49:11.522Z,11.13
2022-12-17T19:51:43.223Z,8.90
2022-12-17T19:54:14.202Z,11.07
2022-12-17T19:56:42.390Z,11.37
2022-12-17T19:59:11.849Z,11.90
2022-12-17T20:01:45.360Z,11.33
2022-12-17T20:04:14.133Z,10.57
2022-12-17T20:06:41.118Z,12.17
2022-12-17T20:09:07.889Z,9.90
2022-12-17T20:11:35.549Z,8.93
2022-12-17T20:14:20.589Z,9.53
2022-12-17T20:16:56.617Z,8.43
2022-12-17T20:19:31.839Z,7.83
2022-12-17T20:22:00.959Z,7.73
2022-12-17T20:24:31.591Z,7.57
2022-12-17T20:26:59.517Z,9.13
2022-12-17T20:29:26.569Z,9.50
2022-12-17T20:31:54.145Z,9.00
2022-12-17T20:34:21.081Z,9.53
2022-12-17T20:36:47.892Z,9.50
2022-12-17T20:39:14.628Z,8.80
2022-12-17T20:41:41.293Z,8.40
2022-12-17T20:44:14.056Z,7.07
2022-12-17T20:46:41.024Z,6.77
2022-12-17T20:49:08.201Z,10.77
2022-12-17T20:51:34.758Z,6.43
2022-12-17T20:54:02.507Z,10.10
2022-12-17T20:56:32.650Z,9.10
2022-12-17T20:59:04.916Z,7.40
2022-12-17T21:01:35.126Z,7.87
2022-12-17T21:04:03.479Z,7.03
2022-12-17T21:06:36.419Z,6.47
2022-12-17T21:09:04.052Z,6.70
2022-12-17T21:11:32.861Z,6.10
2022-12-17T21:14:07.727Z,5.43
2022-12-17T21:16:35.857Z,5.47
2022-12-17T21:19:05.944Z,5.20
2022-12-17T21:21:36.753Z,5.50
2022-12-17T21:24:04.246Z,5.33
2022-12-17T21:26:41.643Z,5.33
2022-12-17T21:29:09.778Z,5.37
2022-12-17T21:31:44.757Z,5.27
2022-12-17T21:34:21.288Z,6.43
2022-12-17T21:36:49.357Z,5.10
2022-12-17T21:39:17.644Z,6.03
2022-12-17T21:43:00.827Z,5.93
2022-12-17T21:45:35.716Z,6.83
2022-12-17T21:48:04.643Z,6.07
2022-12-17T21:50:42.732Z,6.77
2022-12-17T21:53:11.724Z,6.20
2022-12-17T21:55:38.397Z,8.97
2022-12-17T21:58:05.554Z,10.00
2022-12-17T22:00:32.070Z,8.80
2022-12-17T22:02:58.676Z,7.97
2022-12-17T22:05:25.511Z,8.10
2022-12-17T22:07:52.046Z,7.87
2022-12-17T22:10:41.658Z,8.67
2022-12-17T22:13:28.902Z,8.07
2022-12-17T22:15:55.545Z,8.27
2022-12-17T22:18:22.143Z,7.17
2022-12-17T22:21:00.200Z,7.73
2022-12-17T22:23:26.811Z,8.93
2022-12-17T22:25:53.974Z,7.90
2022-12-17T22:28:20.464Z,8.37
2022-12-17T22:31:05.167Z,7.83
2022-12-17T22:34:13.960Z,10.23
2022-12-17T22:41:55.941Z,7.70
2022-12-17T22:44:43.344Z,6.93
2022-12-17T22:47:17.101Z,6.40
2022-12-17T22:49:44.532Z,7.63
2022-12-17T22:52:11.240Z,6.73
2022-12-17T22:54:37.854Z,7.00
2022-12-17T22:57:34.337Z,7.30
2022-12-17T23:00:16.434Z,8.43
2022-12-17T23:02:43.007Z,6.40
2022-12-17T23:05:09.659Z,7.60
2022-12-17T23:07:36.293Z,5.90
2022-12-17T23:10:04.040Z,7.13
2022-12-17T23:12:48.629Z,6.27
2022-12-17T23:15:15.155Z,6.67
2022-12-17T23:17:41.614Z,6.63
2022-12-17T23:20:09.060Z,5.77
2022-12-17T23:22:35.627Z,6.10
2022-12-17T23:25:02.211Z,5.97
2022-12-17T23:27:28.772Z,6.63
2022-12-17T23:29:55.262Z,5.73
2022-12-17T23:32:21.757Z,6.00
2022-12-17T23:34:48.232Z,5.37
2022-12-17T23:37:14.723Z,5.67
2022-12-17T23:39:41.239Z,5.43
2022-12-17T23:42:07.805Z,5.93
2022-12-17T23:44:34.274Z,5.37
2022-12-17T23:47:00.808Z,5.93
2022-12-17T23:49:27.296Z,6.37
2022-12-17T23:51:53.784Z,5.57
2022-12-17T23:54:20.269Z,5.73
2022-12-17T23:56:46.729Z,6.47
2022-12-17T23:59:13.212Z,6.50
